createdAt,value
2023-05-04T11:15:08.399Z,29.93
2023-05-04T11:20:40.809Z,28.08
2023-05-04T11:28:41.017Z,27.58
2023-05-04T11:34:06.947Z,31.28
2023-05-04T11:36:40.471Z,30.59
2023-05-04T11:47:25.322Z,29.16
2023-05-04T11:49:54.535Z,30.56
2023-05-04T11:52:26.865Z,32.48
2023-05-04T11:57:43.638Z,31.71
2023-05-04T12:00:23.527Z,32.34
2023-05-04T12:02:58.823Z,33.91
2023-05-04T12:05:27.168Z,35.15
2023-05-04T12:07:54.360Z,34.89
2023-05-04T12:10:36.725Z,34.40
2023-05-04T12:13:05.028Z,35.66
2023-05-04T12:15:35.781Z,36.01
2023-05-04T12:18:04.308Z,35.80
2023-05-04T12:20:36.691Z,35.37
2023-05-04T12:23:07.288Z,33.64
2023-05-04T12:25:51.016Z,34.69
2023-05-04T12:28:26.272Z,35.98
2023-05-04T12:30:53.688Z,35.13
2023-05-04T12:33:21.747Z,35.77
2023-05-04T12:35:57.165Z,37.45
2023-05-04T12:38:24.147Z,36.01
2023-05-04T12:40:53.043Z,37.20
2023-05-04T12:43:30.794Z,37.60
2023-05-04T12:46:03.853Z,37.81
2023-05-04T12:48:33.140Z,37.63
2023-05-04T12:51:09.315Z,34.61
2023-05-04T12:53:36.904Z,34.48
2023-05-04T12:56:04.166Z,36.01
2023-05-04T12:58:31.549Z,37.45
2023-05-04T13:01:00.597Z,37.44
2023-05-04T13:03:28.027Z,35.61
2023-05-04T13:05:55.045Z,35.40
2023-05-04T13:08:21.894Z,36.40
2023-05-04T13:10:48.936Z,35.86
2023-05-04T13:13:19.480Z,35.13
2023-05-04T13:15:51.010Z,35.62
2023-05-04T13:18:18.454Z,36.03
2023-05-04T13:20:47.080Z,36.08
2023-05-04T13:23:14.230Z,35.39
2023-05-04T13:25:42.412Z,33.41
2023-05-04T13:28:09.426Z,33.38
2023-05-04T13:30:36.368Z,31.19
2023-05-04T13:33:10.280Z,29.51
2023-05-04T13:35:44.998Z,28.47
2023-05-04T13:40:52.813Z,26.56
2023-05-04T13:43:20.001Z,25.17
2023-05-04T13:45:47.322Z,25.38
2023-05-04T14:10:42.318Z,24.01
2023-05-04T14:18:58.085Z,25.34
2023-05-04T14:24:39.496Z,25.74
2023-05-04T14:27:07.669Z,26.10
2023-05-04T14:38:10.847Z,23.36
2023-05-04T15:30:42.803Z,22.90
